createdAt,value
2023-01-22T00:01:33.451Z,33.37
2023-01-22T00:04:02.196Z,33.97
2023-01-22T00:06:32.087Z,30.00
2023-01-22T00:09:04.143Z,31.97
2023-01-22T00:11:32.934Z,34.60
2023-01-22T00:14:01.532Z,34.27
2023-01-22T00:16:30.229Z,32.87
2023-01-22T00:18:59.257Z,31.20
2023-01-22T00:21:27.998Z,34.30
2023-01-22T00:23:56.581Z,38.30
2023-01-22T00:26:26.455Z,29.13
2023-01-22T00:28:54.922Z,31.53
2023-01-22T00:31:24.343Z,33.67
2023-01-22T00:33:52.829Z,31.30
2023-01-22T00:36:22.062Z,34.30
2023-01-22T00:38:51.240Z,34.17
2023-01-22T00:41:20.595Z,31.03
2023-01-22T00:43:52.879Z,31.77
2023-01-22T00:46:21.584Z,29.90
2023-01-22T00:48:51.437Z,32.23
2023-01-22T00:51:20.043Z,35.23
2023-01-22T00:53:48.564Z,32.67
2023-01-22T00:56:18.005Z,31.87
2023-01-22T00:58:46.658Z,35.90
2023-01-22T01:01:16.904Z,35.23
2023-01-22T01:03:45.397Z,31.50
2023-01-22T01:06:16.284Z,32.13
2023-01-22T01:08:45.456Z,28.87
2023-01-22T01:11:19.488Z,33.50
2023-01-22T01:13:48.215Z,35.77
2023-01-22T01:16:19.666Z,30.90
2023-01-22T01:18:48.351Z,35.27
2023-01-22T01:21:17.148Z,29.90
2023-01-22T01:23:45.619Z,32.07
2023-01-22T01:26:15.505Z,35.67
2023-01-22T01:28:45.466Z,33.97
2023-01-22T01:31:15.664Z,32.97
2023-01-22T01:33:45.771Z,35.10
2023-01-22T01:36:15.829Z,34.53
2023-01-22T01:38:44.359Z,34.53
2023-01-22T01:41:14.664Z,30.13
2023-01-22T01:43:43.200Z,33.97
2023-01-22T01:46:16.741Z,32.97
2023-01-22T01:48:48.091Z,32.13
2023-01-22T01:51:20.544Z,31.93
2023-01-22T01:53:50.717Z,32.70
2023-01-22T01:56:22.425Z,32.27
2023-01-22T01:58:52.693Z,29.43
2023-01-22T02:01:21.306Z,34.00
2023-01-22T02:03:52.045Z,33.37
2023-01-22T02:06:21.168Z,30.67
2023-01-22T02:08:50.723Z,39.73
2023-01-22T02:11:20.036Z,34.40
2023-01-22T02:14:09.250Z,30.17
2023-01-22T02:16:38.180Z,32.50
2023-01-22T02:19:08.172Z,35.43
2023-01-22T02:21:39.625Z,32.53
2023-01-22T02:24:09.129Z,35.23
2023-01-22T02:26:38.111Z,31.17
2023-01-22T02:29:08.023Z,31.40
2023-01-22T02:31:37.846Z,36.23
2023-01-22T02:34:06.930Z,36.63
2023-01-22T02:36:37.849Z,32.97
2023-01-22T02:39:08.251Z,40.23
2023-01-22T02:41:36.704Z,32.63
2023-01-22T02:44:07.423Z,39.37
2023-01-22T02:46:35.968Z,33.07
2023-01-22T02:49:04.466Z,36.60
2023-01-22T02:51:34.029Z,36.50
2023-01-22T02:54:02.566Z,30.73
2023-01-22T02:56:33.010Z,41.90
2023-01-22T02:59:01.791Z,34.73
2023-01-22T03:01:30.280Z,35.33
2023-01-22T03:04:01.563Z,36.97
2023-01-22T03:06:31.120Z,32.70
2023-01-22T03:09:02.500Z,36.90
2023-01-22T03:11:36.664Z,37.67
2023-01-22T03:14:25.740Z,35.73
2023-01-22T03:17:12.813Z,36.87
2023-01-22T03:19:59.048Z,39.90
2023-01-22T03:22:27.614Z,38.10
2023-01-22T03:25:00.655Z,32.57
2023-01-22T03:27:32.148Z,36.20
2023-01-22T03:30:00.604Z,35.70
2023-01-22T03:32:33.188Z,38.57
2023-01-22T03:35:02.727Z,34.27
2023-01-22T03:37:43.009Z,36.53
2023-01-22T03:40:12.320Z,38.63
2023-01-22T03:42:43.039Z,34.50
2023-01-22T03:45:12.463Z,37.70
2023-01-22T03:47:41.055Z,41.77
2023-01-22T03:50:22.961Z,39.13
2023-01-22T03:52:52.090Z,38.63
2023-01-22T03:55:20.496Z,39.13
2023-01-22T03:57:50.427Z,40.43
2023-01-22T04:00:21.229Z,40.03
2023-01-22T04:02:53.575Z,38.83
2023-01-22T04:05:26.082Z,38.57
2023-01-22T04:07:54.549Z,39.57
2023-01-22T04:10:28.170Z,37.97
2023-01-22T04:12:58.160Z,36.30
2023-01-22T04:15:26.569Z,38.53
2023-01-22T04:17:57.030Z,32.30
2023-01-22T04:20:54.785Z,34.60
2023-01-22T04:23:32.398Z,38.50
2023-01-22T04:26:01.845Z,39.77
2023-01-22T04:28:32.679Z,32.40
2023-01-22T04:31:02.120Z,35.77
2023-01-22T04:33:50.938Z,34.77
2023-01-22T04:36:29.212Z,35.10
2023-01-22T04:38:57.727Z,42.33
2023-01-22T04:41:26.403Z,39.60
2023-01-22T04:43:56.326Z,37.93
2023-01-22T04:46:26.887Z,41.77
2023-01-22T04:48:55.325Z,41.93
2023-01-22T04:51:23.909Z,45.93
2023-01-22T04:53:52.631Z,38.70
2023-01-22T04:56:21.259Z,40.03
2023-01-22T04:58:50.657Z,37.30
2023-01-22T05:01:20.543Z,41.53
2023-01-22T05:03:49.160Z,39.10
2023-01-22T05:06:17.669Z,37.03
2023-01-22T05:08:46.054Z,39.10
2023-01-22T05:11:14.934Z,42.03
2023-01-22T05:13:55.245Z,40.37
2023-01-22T05:16:25.164Z,37.90
2023-01-22T05:18:54.601Z,39.77
2023-01-22T05:21:23.227Z,35.33
2023-01-22T05:23:51.874Z,35.87
2023-01-22T05:26:21.189Z,35.37
2023-01-22T05:29:00.890Z,35.60
2023-01-22T05:31:30.890Z,37.50
2023-01-22T05:34:04.280Z,38.63
2023-01-22T05:36:33.445Z,33.60
2023-01-22T05:39:09.427Z,33.63
2023-01-22T05:41:38.097Z,33.40
2023-01-22T05:44:06.866Z,35.33
2023-01-22T05:46:36.943Z,35.17
2023-01-22T05:49:23.768Z,32.00
2023-01-22T05:51:55.837Z,39.60
2023-01-22T05:54:24.280Z,35.93
2023-01-22T05:56:53.627Z,39.63
2023-01-22T05:59:22.252Z,32.03
2023-01-22T06:01:58.391Z,37.47
2023-01-22T06:04:27.283Z,30.50
2023-01-22T06:06:55.859Z,32.33
2023-01-22T06:09:25.498Z,37.33
2023-01-22T06:11:55.412Z,35.57
2023-01-22T06:14:23.827Z,34.10
2023-01-22T06:16:52.287Z,28.00
2023-01-22T06:19:30.751Z,39.20
2023-01-22T06:21:59.631Z,39.10
2023-01-22T06:24:36.079Z,37.60
2023-01-22T06:27:05.895Z,34.97
2023-01-22T06:29:41.772Z,35.47
2023-01-22T06:32:10.684Z,37.87
2023-01-22T06:34:40.894Z,39.33
2023-01-22T06:37:09.861Z,32.40
2023-01-22T06:39:40.139Z,32.63
2023-01-22T06:42:16.080Z,34.40
2023-01-22T06:44:44.525Z,35.33
2023-01-22T06:47:13.468Z,38.50
2023-01-22T06:49:43.287Z,35.33
2023-01-22T06:52:13.285Z,35.13
2023-01-22T06:54:41.707Z,33.77
2023-01-22T06:57:11.384Z,32.20
2023-01-22T06:59:41.285Z,34.43
2023-01-22T07:02:11.166Z,28.03
2023-01-22T07:04:39.552Z,28.53
2023-01-22T07:07:09.391Z,28.87
2023-01-22T07:09:38.031Z,26.93
2023-01-22T07:12:06.669Z,28.63
2023-01-22T07:14:37.525Z,29.83
2023-01-22T07:17:06.269Z,28.47
2023-01-22T07:19:34.883Z,27.77
2023-01-22T07:22:03.510Z,24.70
2023-01-22T07:24:33.497Z,26.73
2023-01-22T07:27:03.128Z,33.13
2023-01-22T07:29:31.536Z,30.73
2023-01-22T07:32:00.178Z,24.93
2023-01-22T07:34:28.992Z,31.77
2023-01-22T07:36:57.647Z,28.97
2023-01-22T07:39:26.142Z,28.97
2023-01-22T07:41:58.646Z,31.77
2023-01-22T07:44:33.245Z,28.67
2023-01-22T07:47:01.791Z,28.57
2023-01-22T07:49:30.236Z,30.27
2023-01-22T07:51:58.667Z,30.17
2023-01-22T07:54:27.118Z,25.97
2023-01-22T07:56:57.233Z,27.50
2023-01-22T07:59:26.048Z,30.50
2023-01-22T08:01:56.064Z,28.40
2023-01-22T08:04:24.646Z,31.13
2023-01-22T08:06:53.598Z,29.07
2023-01-22T08:09:25.671Z,22.50
2023-01-22T08:11:54.312Z,29.60
2023-01-22T08:14:24.063Z,20.50
2023-01-22T08:16:52.430Z,26.47
2023-01-22T08:19:21.017Z,24.93
2023-01-22T08:21:49.504Z,20.00
2023-01-22T08:24:17.883Z,24.13
2023-01-22T08:26:46.528Z,22.60
2023-01-22T08:29:15.161Z,25.43
2023-01-22T08:31:46.434Z,22.10
2023-01-22T08:34:14.978Z,23.87
2023-01-22T08:36:43.435Z,24.80
2023-01-22T08:39:11.876Z,20.90
2023-01-22T08:41:40.273Z,25.40
2023-01-22T08:44:09.213Z,27.27
2023-01-22T08:46:40.290Z,24.70
2023-01-22T08:49:10.391Z,25.33
2023-01-22T08:51:38.881Z,24.30
2023-01-22T08:54:07.538Z,24.77
2023-01-22T08:56:38.248Z,22.90
2023-01-22T08:59:07.192Z,23.50
2023-01-22T09:01:36.122Z,28.20
2023-01-22T09:04:07.837Z,28.53
2023-01-22T09:06:38.310Z,23.33
2023-01-22T09:09:08.768Z,25.63
2023-01-22T09:11:37.355Z,22.70
2023-01-22T09:14:08.395Z,24.73
2023-01-22T09:16:37.260Z,23.30
2023-01-22T09:19:05.894Z,21.57
2023-01-22T09:21:37.337Z,18.20
2023-01-22T09:24:08.216Z,19.67
2023-01-22T09:26:38.019Z,21.83
2023-01-22T09:29:06.929Z,18.97
2023-01-22T09:31:35.501Z,19.63
2023-01-22T09:34:04.590Z,19.40
2023-01-22T09:36:33.517Z,16.80
2023-01-22T09:39:02.256Z,21.73
2023-01-22T09:41:34.722Z,15.97
2023-01-22T09:44:04.921Z,19.47
2023-01-22T09:46:36.215Z,17.97
2023-01-22T09:49:08.401Z,16.63
2023-01-22T09:51:36.962Z,19.40
2023-01-22T09:54:08.715Z,17.00
2023-01-22T09:56:42.109Z,16.23
2023-01-22T09:59:15.406Z,20.53
2023-01-22T10:01:44.520Z,15.23
2023-01-22T10:04:20.194Z,16.73
2023-01-22T10:06:49.606Z,17.10
2023-01-22T10:09:18.855Z,19.67
2023-01-22T10:11:51.833Z,24.70
2023-01-22T10:14:28.279Z,23.57
2023-01-22T10:16:57.549Z,29.37
2023-01-22T10:19:28.227Z,27.57
2023-01-22T10:21:58.185Z,27.60
2023-01-22T10:24:26.690Z,27.13
2023-01-22T10:26:58.953Z,28.97
2023-01-22T10:29:29.347Z,26.37
2023-01-22T10:31:58.756Z,31.40
2023-01-22T10:34:32.491Z,26.73
2023-01-22T10:37:03.298Z,28.93
2023-01-22T10:39:40.577Z,29.97
2023-01-22T10:42:17.794Z,30.43
2023-01-22T10:44:46.499Z,29.33
2023-01-22T10:47:22.331Z,29.30
2023-01-22T10:50:04.468Z,27.17
2023-01-22T10:52:37.746Z,32.80
2023-01-22T10:55:08.413Z,30.03
2023-01-22T10:57:39.962Z,29.40
2023-01-22T11:00:24.176Z,26.53
2023-01-22T11:02:52.703Z,25.43
2023-01-22T11:05:22.951Z,27.63
2023-01-22T11:07:54.455Z,28.17
2023-01-22T11:10:27.132Z,30.70
2023-01-22T11:13:00.519Z,31.13
2023-01-22T11:15:37.574Z,30.93
2023-01-22T11:18:07.495Z,27.57
2023-01-22T11:20:44.508Z,28.40
2023-01-22T11:23:16.469Z,28.87
2023-01-22T11:25:48.696Z,26.23
2023-01-22T11:28:32.738Z,32.47
2023-01-22T11:31:09.408Z,24.70
2023-01-22T11:33:50.963Z,27.90
2023-01-22T11:36:25.827Z,23.27
2023-01-22T11:38:59.068Z,25.30
2023-01-22T11:42:00.845Z,21.50
2023-01-22T11:44:47.705Z,18.17
2023-01-22T11:47:28.146Z,23.47
2023-01-22T11:50:08.310Z,21.27
2023-01-22T11:52:47.741Z,19.83
2023-01-22T11:55:32.114Z,17.37
2023-01-22T11:58:11.282Z,17.63
2023-01-22T12:00:46.648Z,17.30
2023-01-22T12:03:43.072Z,21.07
2023-01-22T12:06:23.766Z,19.40
2023-01-22T12:09:02.434Z,21.80
2023-01-22T12:11:42.563Z,23.13
2023-01-22T12:14:21.765Z,22.67
2023-01-22T12:16:59.936Z,21.93
2023-01-22T12:19:37.165Z,23.57
2023-01-22T12:22:09.091Z,25.53
2023-01-22T12:24:39.219Z,23.73
2023-01-22T12:27:12.382Z,26.30
2023-01-22T12:29:44.778Z,24.67
2023-01-22T12:32:15.492Z,25.83
2023-01-22T12:34:49.499Z,25.53
2023-01-22T12:37:21.041Z,26.13
2023-01-22T12:39:53.434Z,27.47
2023-01-22T12:42:25.603Z,26.30
2023-01-22T12:44:59.255Z,26.20
2023-01-22T12:47:36.116Z,28.37
2023-01-22T12:50:18.373Z,28.17
2023-01-22T12:52:48.321Z,26.17
2023-01-22T12:55:29.501Z,26.40
2023-01-22T12:57:58.452Z,28.07
2023-01-22T13:00:35.866Z,26.57
2023-01-22T13:03:30.831Z,23.47
2023-01-22T13:06:02.408Z,24.93
2023-01-22T13:08:42.035Z,26.97
2023-01-22T13:11:11.667Z,23.00
2023-01-22T13:13:44.778Z,26.03
2023-01-22T13:16:22.520Z,24.17
2023-01-22T13:18:52.754Z,24.47
2023-01-22T13:21:27.438Z,26.90
2023-01-22T13:23:59.497Z,24.90
2023-01-22T13:26:29.240Z,30.17
2023-01-22T13:28:59.453Z,28.83
2023-01-22T13:31:27.899Z,26.63
2023-01-22T13:33:57.493Z,24.67
2023-01-22T13:36:27.722Z,28.03
2023-01-22T13:38:56.935Z,29.60
2023-01-22T13:41:30.516Z,28.00
2023-01-22T13:43:58.892Z,27.27
2023-01-22T13:46:28.669Z,28.30
2023-01-22T13:49:07.527Z,27.03
2023-01-22T13:51:38.015Z,25.23
2023-01-22T13:54:07.196Z,32.67
2023-01-22T13:56:36.259Z,31.87
2023-01-22T13:59:08.912Z,27.20
2023-01-22T14:01:38.254Z,29.07
2023-01-22T14:04:07.410Z,33.00
2023-01-22T14:06:49.405Z,30.93
2023-01-22T14:09:26.545Z,29.67
2023-01-22T14:11:54.782Z,29.17
2023-01-22T14:14:23.000Z,31.27
2023-01-22T14:16:51.467Z,30.43
2023-01-22T14:19:19.670Z,35.17
2023-01-22T14:21:49.160Z,29.97
2023-01-22T14:24:17.225Z,30.90
2023-01-22T14:26:45.400Z,35.17
2023-01-22T14:29:13.435Z,33.23
2023-01-22T14:31:41.933Z,33.90
2023-01-22T14:34:11.080Z,30.90
2023-01-22T14:36:39.527Z,32.47
2023-01-22T14:39:09.353Z,30.60
2023-01-22T14:41:37.902Z,31.90
2023-01-22T14:44:06.532Z,30.90
2023-01-22T14:46:36.811Z,32.17
2023-01-22T14:49:05.948Z,32.03
2023-01-22T14:51:34.408Z,31.70
2023-01-22T14:54:02.917Z,31.67
2023-01-22T14:56:32.752Z,30.57
2023-01-22T14:59:01.168Z,31.47
2023-01-22T15:01:29.654Z,30.80
2023-01-22T15:03:58.492Z,32.57
2023-01-22T15:06:27.053Z,31.00
2023-01-22T15:08:55.454Z,28.40
2023-01-22T15:11:23.903Z,31.87
2023-01-22T15:13:55.522Z,36.93
2023-01-22T15:16:24.016Z,31.00
2023-01-22T15:18:55.394Z,32.47
2023-01-22T15:21:23.839Z,35.00
2023-01-22T15:23:52.223Z,32.77
2023-01-22T15:26:25.312Z,33.73
2023-01-22T15:28:55.463Z,34.37
2023-01-22T15:31:23.912Z,36.53
2023-01-22T15:33:52.485Z,35.63
2023-01-22T15:36:20.890Z,32.30
2023-01-22T15:38:49.291Z,36.80
2023-01-22T15:41:21.712Z,33.27
2023-01-22T15:43:51.745Z,38.73
2023-01-22T15:46:23.351Z,38.73
2023-01-22T15:48:52.431Z,36.60
2023-01-22T15:51:20.927Z,35.90
2023-01-22T15:53:51.151Z,31.63
2023-01-22T15:56:20.175Z,30.97
2023-01-22T15:58:48.818Z,31.10
2023-01-22T16:01:17.620Z,31.70
2023-01-22T16:03:47.576Z,32.00
2023-01-22T16:06:17.134Z,34.17
2023-01-22T16:08:46.831Z,33.77
2023-01-22T16:11:15.598Z,32.63
2023-01-22T16:13:44.438Z,29.07
2023-01-22T16:16:16.629Z,29.50
2023-01-22T16:18:45.459Z,29.47
2023-01-22T16:21:15.767Z,31.47
2023-01-22T16:23:45.784Z,34.13
2023-01-22T16:26:17.381Z,29.93
2023-01-22T16:28:46.269Z,34.80
2023-01-22T16:31:15.883Z,27.47
2023-01-22T16:33:45.391Z,33.73
2023-01-22T16:36:15.749Z,31.87
2023-01-22T16:38:44.341Z,30.40
2023-01-22T16:41:25.106Z,30.33
2023-01-22T16:43:55.056Z,34.17
2023-01-22T16:46:24.578Z,31.53
2023-01-22T16:48:57.077Z,33.83
2023-01-22T16:51:27.807Z,33.00
2023-01-22T16:53:56.558Z,32.63
2023-01-22T16:56:24.972Z,36.70
2023-01-22T16:58:53.377Z,35.63
2023-01-22T17:01:22.646Z,37.27
2023-01-22T17:03:51.211Z,34.37
2023-01-22T17:06:24.352Z,34.23
2023-01-22T17:08:54.960Z,33.20
2023-01-22T17:11:23.435Z,36.27
2023-01-22T17:13:51.899Z,38.33
2023-01-22T17:16:20.597Z,40.67
2023-01-22T17:18:49.201Z,42.87
2023-01-22T17:21:18.292Z,36.33
2023-01-22T17:23:46.980Z,36.93
2023-01-22T17:26:17.509Z,40.13
2023-01-22T17:28:46.039Z,39.63
2023-01-22T17:31:15.485Z,38.17
2023-01-22T17:33:44.317Z,40.10
2023-01-22T17:36:15.064Z,41.10
2023-01-22T17:38:43.868Z,41.73
2023-01-22T17:41:14.554Z,40.30
2023-01-22T17:43:45.472Z,39.03
2023-01-22T17:46:15.689Z,42.67
2023-01-22T17:48:44.858Z,40.50
2023-01-22T17:51:14.978Z,39.13
2023-01-22T17:53:45.187Z,38.57
2023-01-22T17:56:15.111Z,40.90
2023-01-22T17:58:46.256Z,41.33
2023-01-22T18:01:16.054Z,39.70
2023-01-22T18:03:44.454Z,37.17
2023-01-22T18:06:13.246Z,41.00
2023-01-22T18:08:42.386Z,43.17
2023-01-22T18:11:11.671Z,39.87
2023-01-22T18:13:40.066Z,40.37
2023-01-22T18:16:11.941Z,42.33
2023-01-22T18:18:40.488Z,39.23
2023-01-22T18:21:09.744Z,37.80
2023-01-22T18:23:39.149Z,38.70
2023-01-22T18:26:08.629Z,41.33
2023-01-22T18:28:37.191Z,46.03
2023-01-22T18:31:06.662Z,41.13
2023-01-22T18:33:37.385Z,38.23
2023-01-22T18:36:08.733Z,38.90
2023-01-22T18:38:37.305Z,37.77
2023-01-22T18:41:06.769Z,38.43
2023-01-22T18:43:35.320Z,39.73
2023-01-22T18:46:04.479Z,42.73
2023-01-22T18:48:32.899Z,47.40
2023-01-22T18:51:03.001Z,54.00
2023-01-22T18:53:32.608Z,54.37
2023-01-22T18:56:01.336Z,49.20
2023-01-22T18:58:32.191Z,46.57
2023-01-22T19:01:08.976Z,41.13
2023-01-22T19:03:37.881Z,47.97
2023-01-22T19:06:13.485Z,50.10
2023-01-22T19:08:43.028Z,47.73
2023-01-22T19:11:12.272Z,46.00
2023-01-22T19:13:41.053Z,52.40
2023-01-22T19:16:10.951Z,47.53
2023-01-22T19:18:40.059Z,46.20
2023-01-22T19:21:10.483Z,44.97
2023-01-22T19:23:38.909Z,51.43
2023-01-22T19:26:10.753Z,47.33
2023-01-22T19:28:39.741Z,54.90
2023-01-22T19:31:16.503Z,50.67
2023-01-22T19:33:45.057Z,53.23
2023-01-22T19:36:14.801Z,57.50
2023-01-22T19:38:43.164Z,59.60
2023-01-22T19:41:11.905Z,51.00
2023-01-22T19:43:40.366Z,52.10
2023-01-22T19:46:09.704Z,51.87
2023-01-22T19:48:38.538Z,54.73
2023-01-22T19:51:08.450Z,66.87
2023-01-22T19:53:38.349Z,65.60
2023-01-22T19:56:12.973Z,64.80
2023-01-22T19:58:41.354Z,74.60
2023-01-22T20:01:10.329Z,72.63
2023-01-22T20:03:38.769Z,68.30
2023-01-22T20:06:07.765Z,59.20
2023-01-22T20:08:37.012Z,68.57
2023-01-22T20:11:07.747Z,59.27
2023-01-22T20:13:36.246Z,59.17
2023-01-22T20:16:04.680Z,59.63
2023-01-22T20:18:33.237Z,63.40
2023-01-22T20:21:02.658Z,63.70
2023-01-22T20:23:31.062Z,53.23
2023-01-22T20:26:02.163Z,61.00
2023-01-22T20:28:32.351Z,79.93
2023-01-22T20:31:01.795Z,70.23
2023-01-22T20:33:30.289Z,62.40
2023-01-22T20:35:58.887Z,63.73
2023-01-22T20:38:28.023Z,74.03
2023-01-22T20:40:56.451Z,68.87
2023-01-22T20:43:26.047Z,78.47
2023-01-22T20:46:03.366Z,76.10
2023-01-22T20:48:32.415Z,67.60
2023-01-22T20:51:01.159Z,61.87
2023-01-22T20:53:30.137Z,82.60
2023-01-22T20:56:02.507Z,82.73
2023-01-22T20:58:30.998Z,85.40
2023-01-22T21:01:06.081Z,79.90
2023-01-22T21:03:35.789Z,71.13
2023-01-22T21:06:04.766Z,73.57
2023-01-22T21:08:33.222Z,78.37
2023-01-22T21:11:03.271Z,73.83
2023-01-22T21:13:31.808Z,64.07
2023-01-22T21:16:07.657Z,59.50
2023-01-22T21:18:41.333Z,65.80
2023-01-22T21:21:10.124Z,62.50
2023-01-22T21:23:38.708Z,68.00
2023-01-22T21:26:07.693Z,69.53
2023-01-22T21:28:36.766Z,79.23
2023-01-22T21:31:09.439Z,86.87
2023-01-22T21:33:39.715Z,81.73
2023-01-22T21:36:09.615Z,74.57
2023-01-22T21:38:38.283Z,74.70
2023-01-22T21:41:08.410Z,75.97
2023-01-22T21:43:55.227Z,65.43
2023-01-22T21:46:25.304Z,60.43
2023-01-22T21:48:58.400Z,70.33
2023-01-22T21:51:26.779Z,66.83
2023-01-22T21:53:55.359Z,54.93
2023-01-22T21:56:24.000Z,66.57
2023-01-22T21:58:52.372Z,54.60
2023-01-22T22:01:23.017Z,64.20
2023-01-22T22:03:51.674Z,68.17
2023-01-22T22:06:21.152Z,51.40
2023-01-22T22:08:49.208Z,60.20
2023-01-22T22:11:17.260Z,58.67
2023-01-22T22:13:45.374Z,59.33
2023-01-22T22:16:14.282Z,53.00
2023-01-22T22:18:42.447Z,49.07
2023-01-22T22:21:11.355Z,52.30
2023-01-22T22:23:40.874Z,50.77
2023-01-22T22:26:11.638Z,45.00
2023-01-22T22:28:40.046Z,42.93
2023-01-22T22:31:11.743Z,48.67
2023-01-22T22:33:40.657Z,48.03
2023-01-22T22:36:09.886Z,49.03
2023-01-22T22:38:38.880Z,47.87
2023-01-22T22:41:09.675Z,59.70
2023-01-22T22:43:39.169Z,57.60
2023-01-22T22:46:08.746Z,62.93
2023-01-22T22:48:37.201Z,59.47
2023-01-22T22:51:10.792Z,50.93
2023-01-22T22:53:39.561Z,45.30
2023-01-22T22:56:10.448Z,51.63
2023-01-22T22:58:39.044Z,52.00
2023-01-22T23:01:08.193Z,47.10
2023-01-22T23:03:37.477Z,48.27
2023-01-22T23:06:08.330Z,46.23
2023-01-22T23:08:37.427Z,41.10
2023-01-22T23:11:06.692Z,46.67
2023-01-22T23:13:36.475Z,44.43
2023-01-22T23:16:05.632Z,44.77
2023-01-22T23:18:34.725Z,45.83
2023-01-22T23:21:04.763Z,39.30
2023-01-22T23:23:33.269Z,43.43
2023-01-22T23:26:01.827Z,43.63
2023-01-22T23:28:30.190Z,36.03
2023-01-22T23:31:05.348Z,45.13
2023-01-22T23:33:33.884Z,47.77
2023-01-22T23:36:03.403Z,48.73
2023-01-22T23:38:31.867Z,56.77
2023-01-22T23:41:00.584Z,61.63
2023-01-22T23:43:29.469Z,57.93
2023-01-22T23:45:58.136Z,55.97
2023-01-22T23:48:27.910Z,62.20
2023-01-22T23:50:56.323Z,57.63
2023-01-22T23:53:24.787Z,67.80
2023-01-22T23:55:59.175Z,75.23
2023-01-22T23:58:27.585Z,74.30
